Terminal Aerodrome Forecast
Issued by NWS

Home | Current Version | Previous Version | Text Only | Print | Product List | Glossary On
Versions: 1 2 3 4 5 6 7 8 9 10 11 12 13 14 15 16
000
FTAK31 PAJN 031700
TAFAJN
TAF
PAJN 031739Z 0318/0418 27004KT P6SM FEW020
     FM032000 24010KT P6SM SKC
     FM040300 28004KT P6SM FEW100
     FM040600 32005KT P6SM SCT100
     FM041100 07005KT P6SM FEW002 SCT100=

USA.gov is the U.S. government's official web portal to all federal, state and local government web resources and services.